Nearby METAR Reports

 

PAWD - Seward, Alaska, USA
Distance from station: WNW 16mi, 27km
Updated: 10/17/2018 5:53am
Overcast
Overcast
 Wind from S
Wind: S 10 mph , 17 km/h
Temperature: 48°F , 9°C
Wind Chill: 44°F , 7°C
Dew Point: 46°F , 8°C
Humidity: 94%
Barometer: 29.59 inHg , 1002 hPa
Clouds: Overcast
Visibility: 10 miles , 16 km
Cloud details: Mostly cloudy 2400 ft
Overcast 2800 ft
2018/10/17 13:53 PAWD 171353Z AUTO 19009KT 10SM BKN024 OVC028 09/08 A2959 RMK AO2 SLP021 T00890078 TSNO $
PATO - Portage Glacier, Alaska, USA
Distance from station: N 54mi, 87km
Updated: 10/17/2018 6:18am
Light rain, Overcast
Light rain, Overcast
 Wind from ESE
Wind: ESE 8 mph , 13 km/h, Gust: 16 mph , 26 km/h
Temperature: 46°F , 8°C
Wind Chill: 42°F , 6°C
Dew Point: 43°F , 6°C
Humidity: 87%
Barometer: 29.61 inHg , 1002.7 hPa
Summary: Light rain
Clouds: Overcast
Visibility: 10 miles , 16 km
Cloud details: Partly cloudy 2800 ft
Mostly cloudy 3400 ft
Overcast 4500 ft
2018/10/17 14:18 PATO 171418Z AUTO 12007G14KT 10SM -RA SCT028 BKN034 OVC045 08/06 A2961 RMK AO2 P0000 T00830061 TSNO
 
PASX - Soldotna, Alaska, USA
Distance from station: WNW 77mi, 124km
Updated: 10/17/2018 5:56am
Light rain, Overcast
Light rain, Overcast
 Wind from E
Wind: E 3 mph , 6 km/h
Temperature: 43°F , 6°C
Dew Point: 43°F , 6°C
Humidity: 100%
Barometer: 29.56 inHg , 1001 hPa
Summary: Light rain
Clouds: Overcast
Visibility: 10 miles , 16 km
Cloud details: Overcast 5500 ft
2018/10/17 13:56 PASX 171356Z AUTO 09003KT 10SM -RA OVC055 06/06 A2956 RMK AO2 RAB38 SLP021 P0000 T00560056
PAEN - Kenai, Alaska, USA
Distance from station: WNW 86mi, 139km
Updated: 10/17/2018 5:53am
Light rain, Overcast
Light rain, Overcast
 Wind from E
Wind: E 3 mph , 6 km/h
Temperature: 45°F , 7°C
Dew Point: 45°F , 7°C
Humidity: 100%
Barometer: 29.54 inHg , 1000.3 hPa
Summary: Light rain
Clouds: Overcast
Visibility: 9 miles , 14 km
Cloud details: Overcast 4800 ft
2018/10/17 13:53 PAEN 171353Z AUTO 08003KT 9SM -RA OVC048 07/07 A2954 RMK AO2 RAB10 SLP006 P0001 T00720067 TSNO
 
PANC - Anchorage Intl, Alaska, USA
Distance from station: NNW 88mi, 141km
Updated: 10/17/2018 5:53am
Mostly cloudy
Mostly cloudy
 Wind from SSE
Wind: SSE 17 mph , 28 km/h, Gust: 24 mph , 39 km/h
Temperature: 52°F , 11°C
Dew Point: 39°F , 4°C
Humidity: 62%
Barometer: 29.54 inHg , 1000.3 hPa
Clouds: Mostly cloudy
Visibility: 10 miles , 16 km
Cloud details: Partly cloudy 7000 ft
Mostly cloudy 8000 ft
Mostly cloudy 11000 ft
2018/10/17 13:53 PANC 171353Z 15015G21KT 10SM SCT070 BKN080 BKN110 11/04 A2954 RMK AO2 SLP002 T01110044
PALH - Anchorage/Lake H, Alaska, USA
Distance from station: NNW 88mi, 142km
Updated: 10/17/2018 5:53am
Overcast
Overcast
 Wind from varies
Wind: varies 3 mph , 6 km/h
Temperature: 48°F , 9°C
Dew Point: 39°F , 4°C
Humidity: 71%
Barometer: 29.55 inHg , 1000.7 hPa
Clouds: Overcast
Visibility: 10 miles , 16 km
Cloud details: Overcast 8500 ft
2018/10/17 13:53 PALH 171353Z VRB03KT 10SM OVC085 09/04 A2955 RMK AO2 SLP006 T00890044
 
PAMR - Anchorage/Merril, Alaska, USA
Distance from station: NNW 89mi, 143km
Updated: 10/17/2018 5:53am
Overcast
Overcast
 Wind from calm
Wind: Calm
Temperature: 45°F , 7°C
Dew Point: 43°F , 6°C
Humidity: 93%
Barometer: 29.54 inHg , 1000.3 hPa
Clouds: Overcast
Visibility: 10 miles , 16 km
Cloud details: Partly cloudy 6500 ft
Mostly cloudy 9000 ft
Overcast 13000 ft
2018/10/17 13:53 PAMR 171353Z 00000KT 10SM SCT065 BKN090 OVC130 07/06 A2954 RMK AO2 SLP003 T00670056
PAFR - Fort Richardson, Alaska, USA
Distance from station: NNW 90mi, 145km
Updated: 10/17/2018 5:58am
Light rain, Overcast
Light rain, Overcast
 Wind from SSE
Wind: SSE 7 mph , 11 km/h
Temperature: 50°F , 10°C
Wind Chill: 47°F , 8°C
Dew Point: 39°F , 4°C
Humidity: 67%
Barometer: 29.51 inHg , 999.3 hPa
Summary: Light rain
Clouds: Overcast
Visibility: 9 miles , 14 km
Cloud details: Overcast 6000 ft
2018/10/17 13:58 PAFR 171358Z AUTO 15006KT 9SM -RA OVC060 10/04 A2951 RMK AO2 RAE02RAB45 SLP999 P0000 T00980036
 
PAHO - Homer, Alaska, USA
Distance from station: WSW 90mi, 146km
Updated: 10/17/2018 5:53am
Overcast
Overcast
 Wind from calm
Wind: Calm
Temperature: 46°F , 8°C
Dew Point: 45°F , 7°C
Humidity: 93%
Barometer: 29.54 inHg , 1000.3 hPa
Clouds: Overcast
Visibility: 10 miles , 16 km
Cloud details: Mostly cloudy 4000 ft
Overcast 5000 ft
2018/10/17 13:53 PAHO 171353Z AUTO 00000KT 10SM BKN040 OVC050 08/07 A2954 RMK AO2 SLP004 T00780067 TSNO
PAED - Elmendorf Afb, Alaska, USA
Distance from station: NNW 91mi, 146km
Updated: 10/17/2018 5:56am
Overcast
Overcast
 Wind from calm
Wind: Calm
Temperature: 43°F , 6°C
Dew Point: 43°F , 6°C
Humidity: 100%
Barometer: 29.54 inHg , 1000.3 hPa
Clouds: Overcast
Visibility: 10 miles , 16 km
Cloud details: Few Clouds 6000 ft
Mostly cloudy 8500 ft
Overcast 11000 ft
2018/10/17 13:56 PAED 171356Z AUTO 00000KT 10SM FEW060 BKN085 OVC110 06/06 A2954 RMK AO2 SLP999 T00630063
 
PABV - Birchwood, Alaska, USA
Distance from station: N 99mi, 160km
Updated: 10/17/2018 5:56am
Light rain, Overcast
Light rain, Overcast
 Wind from NE
Wind: NE 6 mph , 9 km/h
Temperature: 46°F , 8°C
Wind Chill: 43°F , 6°C
Dew Point: 41°F , 5°C
Humidity: 82%
Barometer: 29.56 inHg , 1001 hPa
Summary: Light rain
Clouds: Overcast
Visibility: 10 miles , 16 km
Cloud details: Overcast 6500 ft
2018/10/17 13:56 PABV 171356Z AUTO 05005KT 10SM -RA OVC065 08/05 A2956 RMK AO2 RAE30B47 SLP019 P0000 T00780050
PASO - Seldovia, Alaska, USA
Distance from station: WSW 101mi, 163km
Updated: 10/17/2018 5:53am
Light rain, Mist, Overcast
Light rain, Mist, Overcast
 Wind from NNE
Wind: NNE 3 mph , 6 km/h
Temperature: 45°F , 7°C
Dew Point: 43°F , 6°C
Humidity: 93%
Barometer: 29.53 inHg , 1000 hPa
Summary: Light rain, Mist
Clouds: Overcast
Visibility: 5 miles , 8 km
Cloud details: Partly cloudy 3500 ft
Mostly cloudy 4300 ft
Overcast 5500 ft
2018/10/17 13:53 PASO 171353Z AUTO 02003KT 5SM -RA BR SCT035 BKN043 OVC055 07/06 A2953 RMK AO2 RAE1257B10 SLP000 P0000 T00670061 TSNO
 
PAMD - Middleton Island, Alaska, USA
Distance from station: ESE 102mi, 164km
Updated: 10/17/2018 5:51am
Clear
Clear
 Wind from S
Wind: S 12 mph , 19 km/h
Temperature: 48°F , 9°C
Wind Chill: 43°F , 6°C
Dew Point: 46°F , 8°C
Humidity: 94%
Barometer: 29.70 inHg , 1005.8 hPa
Clouds: Clear
Visibility: 9 miles , 14 km
2018/10/17 13:51 PAMD 171351Z AUTO 17010KT 9SM CLR 09/08 A2970 RMK AO2 SLP048 T00890078
PAAQ - Palmer, Alaska, USA
Distance from station: N 111mi, 178km
Updated: 10/17/2018 5:53am
Overcast
Overcast
 Wind from NE
Wind: NE 7 mph , 11 km/h
Temperature: 45°F , 7°C
Wind Chill: 41°F , 5°C
Dew Point: 39°F , 4°C
Humidity: 81%
Barometer: 29.58 inHg , 1001.7 hPa
Clouds: Overcast
Visibility: 10 miles , 16 km
Cloud details: Partly cloudy 5500 ft
Mostly cloudy 7000 ft
Overcast 9000 ft
2018/10/17 13:53 PAAQ 171353Z AUTO 05006KT 10SM SCT055 BKN070 OVC090 07/04 A2958 RMK AO2 RAB1256E14 SLP019 P0000 T00720044 TSNO
 
PAVD - Valdez, Alaska, USA
Distance from station: NE 122mi, 196km
Updated: 10/17/2018 6:23am
Rain, Mist, Overcast
Rain, Mist, Overcast
 Wind from calm
Wind: Calm
Temperature: 45°F , 7°C
Dew Point: 43°F , 6°C
Humidity: 93%
Barometer: 29.71 inHg , 1006.1 hPa
Summary: Rain, Mist
Clouds: Overcast
Visibility: 4 miles , 6 km
Cloud details: Few Clouds 100 ft
Few Clouds 2000 ft
Overcast 4500 ft
2018/10/17 14:23 PAVD 171423Z 00000KT 4SM RA BR FEW001 FEW020 OVC045 07/06 A2971 RMK AO2 P0003
PACV - Cordova, Alaska, USA
Distance from station: ENE 125mi, 201km
Updated: 10/17/2018 6:16am
Overcast
Overcast
 Wind from SE
Wind: SE 6 mph , 9 km/h
Temperature: 48°F , 9°C
Wind Chill: 45°F , 7°C
Dew Point: 46°F , 8°C
Humidity: 94%
Barometer: 29.73 inHg , 1006.8 hPa
Clouds: Overcast
Visibility: 10 miles , 16 km
Cloud details: Partly cloudy 900 ft
Overcast 1900 ft
2018/10/17 14:16 PACV 171416Z 13005KT 10SM SCT009 OVC019 09/08 A2973 RMK AO2 RAE1357 P0000 T00890083
 
PAZK - Eureka, Alaska, USA
Distance from station: NNE 147mi, 237km
Updated: 09/10/2018 9:56am
NOT Current
Clear
Clear
 Wind from calm
Wind: Calm
Temperature: 46°F , 8°C
Dew Point: 28°F , -2°C
Humidity: 50%
Barometer: 30.00 inHg , 1015.9 hPa
Clouds: Clear
Visibility: 10 miles , 16 km
2018/09/10 17:56 PAZK 101756Z AUTO 00000KT 10SM CLR 08/M02 A3000 RMK AO2 SLP184 T00831017 10089 20039 53003
PATK - Talkeetna, Alaska, USA
Distance from station: NNW 163mi, 262km
Updated: 10/17/2018 5:53am
Overcast
Overcast
 Wind from NE
Wind: NE 5 mph , 7 km/h
Temperature: 43°F , 6°C
Wind Chill: 40°F , 4°C
Dew Point: 39°F , 4°C
Humidity: 87%
Barometer: 29.57 inHg , 1001.4 hPa
Clouds: Overcast
Visibility: 10 miles , 16 km
Cloud details: Partly cloudy 500 ft
Mostly cloudy 5000 ft
Overcast 6500 ft
2018/10/17 13:53 PATK 171353Z AUTO 05004KT 10SM SCT005 BKN050 OVC065 06/04 A2957 RMK AO2 RAE09 SLP018 P0001 T00560044 TSNO
 
PALJ - Port Alsworth, Alaska, USA
Distance from station: W 183mi, 295km
Updated: 10/16/2018 12:57pm
NOT Current
Overcast
Overcast
 Wind from NW
Wind: NW 5 mph , 7 km/h
Temperature: 50°F , 10°C
Wind Chill: 48°F , 9°C
Dew Point: 43°F , 6°C
Humidity: 76%
Barometer: 29.26 inHg , 990.9 hPa
Clouds: Overcast
Visibility: 30 miles , 48 km
Cloud details: Mostly cloudy 5000 ft
Overcast 8000 ft
2018/10/16 20:57 PALJ 162057Z 31004KT 30SM BKN050 OVC080 10/06 A2926 RMK ESTIMATE PASS OPEN NOSPECI
PAGK - Gulkana, Alaska, USA
Distance from station: NE 190mi, 306km
Updated: 10/17/2018 5:53am
Few Clouds
Few Clouds
 Wind from S
Wind: S 12 mph , 19 km/h
Temperature: 39°F , 4°C
Wind Chill: 32°F , 0°C
Dew Point: 37°F , 3°C
Humidity: 93%
Barometer: 29.65 inHg , 1004.1 hPa
Clouds: Few Clouds
Visibility: 10 miles , 16 km
Cloud details: Few Clouds 7000 ft
2018/10/17 13:53 PAGK 171353Z AUTO 17010KT 10SM FEW070 04/03 A2965 RMK AO2 SLP053 T00440028 TSNO $
 
KLVK - Livermore, California, USA
Distance from station: NNE 31mi, 51km
Updated: 10/17/2018 5:53am
Clear
Clear
 Wind from calm
Wind: Calm
Temperature: 46°F , 8°C
Dew Point: 32°F , 0°C
Humidity: 57%
Barometer: 30.09 inHg , 1019 hPa
Clouds: Clear
Visibility: 10 miles , 16 km
2018/10/17 13:53 KLVK 171353Z 00000KT 10SM CLR 08/00 A3009 RMK AO2 SLP187 T00830000

USA Weather Finder






Flag Counter